Time;durP1;ratioP1;P1;durP2;ratioP2;P2;SDS_P1;SDS_P2;PMS_P1;PMS_P2;Temp;Humidity;BMP_temperature;BMP_pressure;BME280_temperature;BME280_humidity;BME280_pressure;Samples;Min_cycle;Max_cycle;Signal;HPM_P1;HPM_P2
2022/10/13 00:00:04;;;;;;;8.80;3.90;;;;;;;5.79;97.00;101666.13;5033881;28;20489;-71
2022/10/13 00:02:30;;;;;;;10.03;3.37;;;;;;;5.79;97.75;101674.22;5052387;28;20482;-70
2022/10/13 00:04:56;;;;;;;11.17;3.10;;;;;;;5.79;98.15;101663.44;5052884;28;20435;-71
2022/10/13 00:07:23;;;;;;;8.97;3.73;;;;;;;5.93;97.74;101663.16;5052830;28;20455;-70
2022/10/13 00:09:50;;;;;;;12.60;4.20;;;;;;;5.99;97.94;101664.91;5052413;28;20508;-70
2022/10/13 00:12:17;;;;;;;6.97;2.87;;;;;;;6.04;97.66;101659.59;5051094;28;20486;-71
2022/10/13 00:14:43;;;;;;;8.27;3.63;;;;;;;5.89;99.06;101662.84;5053301;28;20442;-70
2022/10/13 00:17:10;;;;;;;9.33;4.37;;;;;;;6.01;98.46;101660.09;5052493;28;20511;-70
2022/10/13 00:19:36;;;;;;;10.83;4.23;;;;;;;6.01;99.01;101655.53;5053496;28;20930;-72
2022/10/13 00:22:03;;;;;;;5.70;2.80;;;;;;;6.07;98.64;101648.38;5052186;28;20486;-71
2022/10/13 00:24:29;;;;;;;8.30;3.40;;;;;;;6.07;99.08;101651.06;5053467;28;20442;-71
2022/10/13 00:26:57;;;;;;;15.33;4.20;;;;;;;6.09;98.73;101654.31;5052918;28;20462;-71
2022/10/13 00:29:24;;;;;;;7.30;3.13;;;;;;;6.10;99.00;101652.44;5052572;28;20462;-70
2022/10/13 00:31:50;;;;;;;11.23;4.30;;;;;;;6.01;99.67;101644.75;5052007;28;20516;-71
2022/10/13 00:34:16;;;;;;;8.33;3.60;;;;;;;6.12;99.27;101653.03;5053010;28;20998;-70
2022/10/13 00:36:43;;;;;;;8.27;3.40;;;;;;;6.03;99.03;101647.22;5052338;28;20462;-71
2022/10/13 00:39:09;;;;;;;8.83;4.33;;;;;;;5.92;97.71;101638.16;5053181;28;20434;-72
2022/10/13 00:41:36;;;;;;;9.60;4.20;;;;;;;5.85;97.15;101650.13;5052086;28;20475;-71
2022/10/13 00:44:06;;;;;;;9.50;3.90;;;;;;;5.76;96.55;101644.34;5053200;28;20439;-70
2022/10/13 00:46:34;;;;;;;6.20;3.30;;;;;;;5.70;96.56;101648.78;5052559;28;20528;-71
2022/10/13 00:49:04;;;;;;;15.43;4.30;;;;;;;5.76;96.50;101641.63;5053150;28;20449;-70
2022/10/13 00:51:39;;;;;;;9.47;3.20;;;;;;;5.73;95.38;101642.13;5051957;28;20486;-72
2022/10/13 00:54:08;;;;;;;9.80;3.57;;;;;;;5.55;96.96;101643.16;5053245;28;20469;-70
2022/10/13 00:56:37;;;;;;;9.90;3.43;;;;;;;5.67;97.05;101640.41;5052368;28;20462;-72
2022/10/13 00:59:12;;;;;;;10.03;3.80;;;;;;;5.71;97.92;101642.38;5053050;28;20449;-71
2022/10/13 01:01:38;;;;;;;6.60;3.00;;;;;;;5.60;98.76;101645.91;5051677;28;20485;-70
2022/10/13 01:04:05;;;;;;;8.10;4.03;;;;;;;5.54;100.00;101636.97;5052934;28;20438;-67
2022/10/13 01:06:31;;;;;;;10.23;4.23;;;;;;;5.64;100.00;101641.69;5052012;28;20454;-66
2022/10/13 01:08:58;;;;;;;8.23;3.67;;;;;;;5.71;99.42;101644.22;5052822;28;20442;-70
2022/10/13 01:11:48;;;;;;;8.97;3.93;;;;;;;5.69;100.00;101636.41;5049872;28;20537;-71
2022/10/13 01:14:23;;;;;;;8.40;4.13;;;;;;;5.80;99.10;101642.78;5051840;28;20474;-70
2022/10/13 01:16:59;;;;;;;8.03;3.40;;;;;;;5.73;99.87;101639.44;5052833;28;20429;-70
2022/10/13 01:19:45;;;;;;;10.40;3.93;;;;;;;5.76;99.23;101641.63;5052342;28;20461;-71
2022/10/13 01:22:28;;;;;;;5.93;3.10;;;;;;;5.68;99.89;101633.97;5050906;28;20482;-70
2022/10/13 01:25:03;;;;;;;8.00;3.33;;;;;;;5.56;100.00;101632.16;5054907;28;20438;-70
2022/10/13 01:27:51;;;;;;;6.87;3.13;;;;;;;5.44;100.00;101631.38;5055776;28;20454;-70
2022/10/13 01:30:20;;;;;;;7.23;3.30;;;;;;;5.45;100.00;101626.84;5055462;28;20422;-70
2022/10/13 01:33:02;;;;;;;8.77;3.90;;;;;;;5.57;100.00;101616.84;5054886;28;20527;-70
2022/10/13 01:35:39;;;;;;;6.80;3.10;;;;;;;5.49;100.00;101619.91;5036437;28;20435;-70
2022/10/13 01:38:12;;;;;;;5.37;2.87;;;;;;;5.43;100.00;101621.69;5040069;28;20466;-69
2022/10/13 01:40:45;;;;;;;13.13;3.73;;;;;;;5.33;99.87;101616.13;5056338;28;20488;-69
2022/10/13 01:43:18;;;;;;;6.83;3.17;;;;;;;5.38;99.49;101623.47;5055140;28;20469;-70
2022/10/13 01:45:51;;;;;;;11.17;3.37;;;;;;;5.34;97.83;101607.03;5056154;28;20431;-69
2022/10/13 01:48:19;;;;;;;10.80;3.13;;;;;;;5.28;97.22;101616.06;5054881;28;20458;-70
2022/10/13 01:50:46;;;;;;;6.70;2.87;;;;;;;5.22;97.07;101609.78;5055291;28;20496;-70
2022/10/13 01:53:16;;;;;;;7.07;3.53;;;;;;;5.29;97.63;101610.44;5055880;28;20493;-69
2022/10/13 01:55:50;;;;;;;10.70;2.90;;;;;;;5.17;96.14;101600.78;5055766;28;20446;-69
2022/10/13 01:58:17;;;;;;;7.77;3.77;;;;;;;5.22;96.38;101590.97;5055479;28;20437;-69
2022/10/13 02:00:55;;;;;;;6.43;3.07;;;;;;;5.31;96.84;101591.38;5055912;28;20858;-69
2022/10/13 02:03:30;;;;;;;6.63;3.10;;;;;;;5.27;98.46;101585.69;5055083;28;20422;-69
2022/10/13 02:06:07;;;;;;;14.63;4.00;;;;;;;5.44;97.84;101584.88;5053618;28;20938;-69
2022/10/13 02:08:40;;;;;;;8.90;3.37;;;;;;;5.46;97.69;101588.16;5054627;28;20954;-69
2022/10/13 02:11:14;;;;;;;5.37;3.07;;;;;;;5.43;97.97;101588.66;5055706;28;20422;-69
2022/10/13 02:13:45;;;;;;;6.10;2.40;;;;;;;5.44;98.17;101584.88;5054199;28;20492;-70
2022/10/13 02:16:15;;;;;;;7.17;3.33;;;;;;;5.37;99.27;101573.50;5054557;28;20454;-70
2022/10/13 02:18:43;;;;;;;9.73;3.40;;;;;;;5.46;99.21;101580.91;5055636;28;20870;-70
2022/10/13 02:21:10;;;;;;;9.90;3.73;;;;;;;5.41;99.60;101575.47;5054673;28;20881;-71
2022/10/13 02:23:36;;;;;;;9.70;3.37;;;;;;;5.47;98.62;101573.66;5055566;28;20427;-70
2022/10/13 02:26:03;;;;;;;6.83;3.23;;;;;;;5.45;99.07;101571.22;5054398;28;20473;-70
2022/10/13 02:28:30;;;;;;;8.77;3.73;;;;;;;5.42;98.92;101566.34;5055347;28;20770;-70
2022/10/13 02:30:56;;;;;;;8.87;2.83;;;;;;;5.34;99.55;101563.22;5054057;28;20817;-70
2022/10/13 02:33:24;;;;;;;11.30;3.73;;;;;;;5.29;100.00;101564.75;5055316;28;20489;-70
2022/10/13 02:35:50;;;;;;;7.70;2.50;;;;;;;5.35;99.64;101556.78;5052225;28;20450;-69
2022/10/13 02:38:17;;;;;;;10.73;4.10;;;;;;;5.42;98.68;101554.78;5055137;28;20453;-70
2022/10/13 02:40:44;;;;;;;7.80;3.10;;;;;;;5.38;97.13;101557.13;5054013;28;20813;-70
2022/10/13 02:43:10;;;;;;;6.00;2.90;;;;;;;5.34;96.82;101552.47;5053710;28;21017;-71
2022/10/13 02:45:36;;;;;;;8.57;3.50;;;;;;;5.25;96.79;101549.38;5054134;28;20580;-70
2022/10/13 02:48:03;;;;;;;9.00;4.03;;;;;;;5.27;95.62;101542.72;5053520;28;20458;-71
2022/10/13 02:50:31;;;;;;;6.37;3.20;;;;;;;5.22;95.84;101544.47;5054397;28;20458;-70
2022/10/13 02:52:57;;;;;;;5.93;3.30;;;;;;;5.19;95.88;101545.78;5054143;28;20493;-71
2022/10/13 02:55:24;;;;;;;11.90;4.73;;;;;;;5.07;96.46;101542.34;5054811;28;20893;-69
2022/10/13 02:57:50;;;;;;;8.70;3.50;;;;;;;5.10;97.72;101551.81;5051169;28;20454;-70
2022/10/13 03:00:17;;;;;;;6.90;3.10;;;;;;;5.13;98.33;101537.88;5054889;28;20442;-69
2022/10/13 03:02:43;;;;;;;6.27;3.03;;;;;;;5.17;98.65;101545.19;5053559;28;20478;-70
2022/10/13 03:05:10;;;;;;;8.03;3.20;;;;;;;5.38;97.53;101542.88;5054687;28;20500;-70
2022/10/13 03:07:38;;;;;;;8.53;3.33;;;;;;;5.18;99.07;101549.53;5053609;28;20469;-71
2022/10/13 03:10:05;;;;;;;10.40;3.97;;;;;;;5.27;98.98;101536.53;5054285;28;20955;-70
2022/10/13 03:12:32;;;;;;;7.97;3.90;;;;;;;5.34;98.91;101542.56;5053456;28;20513;-70
2022/10/13 03:14:58;;;;;;;10.23;3.50;;;;;;;5.27;99.77;101542.72;5053674;28;20485;-71
2022/10/13 03:17:24;;;;;;;5.70;2.87;;;;;;;5.43;98.86;101540.28;5053421;28;20458;-71
2022/10/13 03:19:51;;;;;;;7.23;3.60;;;;;;;5.44;99.00;101541.91;5053840;28;20470;-69
2022/10/13 03:22:17;;;;;;;8.00;3.60;;;;;;;5.39;99.83;101539.13;5054106;28;20482;-70
2022/10/13 03:24:45;;;;;;;9.83;3.73;;;;;;;5.40;99.77;101536.22;5051709;28;20475;-70
2022/10/13 03:27:12;;;;;;;6.17;2.53;;;;;;;5.48;99.49;101537.69;5054420;28;20446;-70
2022/10/13 03:29:38;;;;;;;8.37;3.10;;;;;;;5.48;100.00;101524.25;5052900;28;20508;-71
2022/10/13 03:32:05;;;;;;;11.30;3.70;;;;;;;5.56;99.82;101524.66;5053768;28;20990;-70
2022/10/13 03:34:31;;;;;;;12.33;2.93;;;;;;;5.59;100.00;101528.75;5052799;28;21003;-70
2022/10/13 03:36:58;;;;;;;7.43;3.70;;;;;;;5.68;99.54;101521.91;5054068;28;20515;-70
2022/10/13 03:39:24;;;;;;;8.50;3.10;;;;;;;5.67;99.43;101520.28;5053319;28;20458;-70
2022/10/13 03:41:52;;;;;;;13.90;4.07;;;;;;;5.64;98.66;101528.81;5053795;28;20458;-70
2022/10/13 03:44:18;;;;;;;12.43;3.77;;;;;;;5.66;98.07;101520.50;5052932;28;20458;-70
2022/10/13 03:46:45;;;;;;;7.97;3.37;;;;;;;5.71;97.52;101515.19;5052771;28;20458;-71
2022/10/13 03:49:12;;;;;;;8.63;4.00;;;;;;;5.84;97.29;101517.53;5052794;28;20469;-71
2022/10/13 03:51:38;;;;;;;14.10;3.37;;;;;;;5.90;97.70;101515.78;5053743;28;20454;-71
2022/10/13 03:54:05;;;;;;;8.33;3.40;;;;;;;5.93;98.25;101513.44;5052691;28;20520;-72
2022/10/13 03:56:31;;;;;;;9.53;3.80;;;;;;;6.01;99.24;101517.56;5053340;28;21071;-71
2022/10/13 03:59:00;;;;;;;8.60;3.93;;;;;;;6.06;100.00;101514.94;5043455;28;20501;-71
2022/10/13 04:01:29;;;;;;;16.90;3.40;;;;;;;6.11;100.00;101515.03;5042392;28;20493;-71
2022/10/13 04:03:57;;;;;;;6.57;3.10;;;;;;;6.18;100.00;101521.03;5052570;28;20459;-72
2022/10/13 04:06:25;;;;;;;7.03;3.10;;;;;;;6.25;100.00;101510.09;5052571;28;20462;-71
2022/10/13 04:08:52;;;;;;;8.07;3.50;;;;;;;6.37;100.00;101510.78;5052141;28;20456;-71
2022/10/13 04:11:19;;;;;;;7.37;3.60;;;;;;;6.41;100.00;101519.16;5053623;28;20466;-71
2022/10/13 04:13:46;;;;;;;7.80;3.53;;;;;;;6.44;100.00;101519.50;5052748;28;20482;-72
2022/10/13 04:16:16;;;;;;;9.17;3.77;;;;;;;6.43;100.00;101517.06;5052408;28;20446;-72
2022/10/13 04:18:42;;;;;;;6.37;3.07;;;;;;;6.61;100.00;101508.66;5053037;28;20450;-72
2022/10/13 04:21:10;;;;;;;16.00;5.43;;;;;;;6.58;100.00;101514.53;5052582;28;20438;-70
2022/10/13 04:23:37;;;;;;;8.70;3.90;;;;;;;6.56;100.00;101500.53;5033621;28;20462;-70
2022/10/13 04:26:04;;;;;;;9.10;3.93;;;;;;;6.69;100.00;101497.44;5033437;28;20435;-71
2022/10/13 04:28:32;;;;;;;8.73;4.50;;;;;;;6.73;100.00;101503.97;5052960;28;20453;-71
2022/10/13 04:30:59;;;;;;;9.07;3.33;;;;;;;6.67;100.00;101502.25;5052978;28;20962;-71
2022/10/13 04:33:27;;;;;;;7.77;4.07;;;;;;;6.72;100.00;101506.88;5052588;28;20950;-70
2022/10/13 04:35:53;;;;;;;10.33;4.00;;;;;;;6.73;100.00;101506.66;5053196;28;20482;-70
2022/10/13 04:38:20;;;;;;;10.60;4.20;;;;;;;6.79;100.00;101500.25;5052014;28;20466;-71
2022/10/13 04:40:46;;;;;;;10.13;3.97;;;;;;;6.77;100.00;101507.78;5053341;28;20831;-70
2022/10/13 04:43:14;;;;;;;9.60;3.70;;;;;;;6.78;100.00;101504.00;5052487;28;20486;-71
2022/10/13 04:45:41;;;;;;;9.50;3.70;;;;;;;6.81;100.00;101498.09;5053282;28;20447;-73
2022/10/13 04:48:07;;;;;;;10.93;3.80;;;;;;;6.92;99.42;101493.66;5052154;28;20465;-67
2022/10/13 04:50:35;;;;;;;9.00;4.37;;;;;;;6.90;99.22;101492.28;5052660;28;20935;-71
2022/10/13 04:53:02;;;;;;;9.20;4.37;;;;;;;6.90;99.04;101494.97;5052497;28;20531;-72
2022/10/13 04:55:28;;;;;;;8.30;3.70;;;;;;;6.84;100.00;101496.78;5053156;28;20486;-71
2022/10/13 04:57:54;;;;;;;9.80;3.97;;;;;;;6.89;100.00;101499.53;5051272;28;20462;-70
2022/10/13 05:00:21;;;;;;;7.83;4.10;;;;;;;6.96;100.00;101496.66;5055423;28;20450;-70
2022/10/13 05:02:47;;;;;;;10.13;4.80;;;;;;;7.09;100.00;101488.16;5056999;28;20461;-70
2022/10/13 05:05:14;;;;;;;8.57;4.50;;;;;;;7.13;100.00;101491.97;5055006;28;20470;-70
2022/10/13 05:07:42;;;;;;;9.43;4.23;;;;;;;7.17;100.00;101490.41;5051811;28;20873;-66
2022/10/13 05:10:09;;;;;;;8.97;4.13;;;;;;;7.30;100.00;101492.66;5036750;28;20439;-67
2022/10/13 05:12:36;;;;;;;11.10;5.37;;;;;;;7.38;100.00;101483.28;5054045;28;20889;-68
2022/10/13 05:15:02;;;;;;;10.03;4.83;;;;;;;7.44;100.00;101486.84;5056189;28;20494;-69
2022/10/13 05:17:30;;;;;;;11.80;4.60;;;;;;;7.46;100.00;101487.41;5056477;28;20442;-67
2022/10/13 05:19:56;;;;;;;14.60;5.60;;;;;;;7.51;100.00;101479.34;5055135;28;20497;-68
2022/10/13 05:22:22;;;;;;;12.57;5.10;;;;;;;7.54;100.00;101471.56;5079506;22;20489;-68
2022/10/13 05:24:50;;;;;;;9.27;4.67;;;;;;;7.66;100.00;101475.94;5055026;28;20538;-69
2022/10/13 05:27:17;;;;;;;12.03;5.00;;;;;;;7.71;100.00;101473.28;5055954;28;20449;-69
2022/10/13 05:29:43;;;;;;;11.57;4.67;;;;;;;7.78;100.00;101461.19;5054407;28;20465;-69
2022/10/13 05:32:09;;;;;;;13.17;6.33;;;;;;;7.78;100.00;101473.88;5055383;28;20482;-70
2022/10/13 05:34:36;;;;;;;8.90;4.77;;;;;;;7.84;100.00;101473.66;5055770;28;21066;-71
2022/10/13 05:37:03;;;;;;;9.10;5.40;;;;;;;7.91;100.00;101467.19;5055442;28;20462;-71
2022/10/13 05:39:30;;;;;;;13.80;5.90;;;;;;;7.90;100.00;101465.59;5055807;28;20969;-70
2022/10/13 05:41:57;;;;;;;12.43;4.90;;;;;;;7.88;100.00;101463.16;5054978;28;20481;-70
2022/10/13 05:44:24;;;;;;;11.63;5.37;;;;;;;7.95;100.00;101463.72;5055913;28;20492;-72
2022/10/13 05:46:50;;;;;;;18.23;5.50;;;;;;;7.93;100.00;101465.88;5055537;28;20462;-72
2022/10/13 05:49:17;;;;;;;12.23;5.40;;;;;;;7.92;100.00;101458.84;5053709;28;20837;-69
2022/10/13 05:51:47;;;;;;;10.67;5.40;;;;;;;7.95;100.00;101468.31;5055473;28;20449;-69
2022/10/13 05:54:17;;;;;;;12.63;5.00;;;;;;;8.02;100.00;101467.00;5055775;28;20419;-70
2022/10/13 05:56:47;;;;;;;19.00;6.07;;;;;;;8.06;100.00;101475.41;5055736;28;20449;-69
2022/10/13 05:59:19;;;;;;;12.53;5.83;;;;;;;8.13;100.00;101465.16;5055742;28;20450;-70
2022/10/13 06:01:47;;;;;;;12.60;4.50;;;;;;;8.12;100.00;101471.63;5055783;28;20476;-70
2022/10/13 06:04:18;;;;;;;11.13;5.93;;;;;;;8.14;100.00;101468.66;5055652;28;20441;-70
2022/10/13 06:06:45;;;;;;;11.27;6.27;;;;;;;8.17;100.00;101477.06;5055681;28;20418;-70
2022/10/13 06:09:11;;;;;;;14.73;5.67;;;;;;;8.15;100.00;101473.00;5055588;28;20458;-70
2022/10/13 06:11:37;;;;;;;9.80;4.83;;;;;;;8.14;100.00;101477.56;5054969;28;20971;-70
2022/10/13 06:14:04;;;;;;;9.90;4.80;;;;;;;8.11;100.00;101472.72;5055439;28;20494;-70
2022/10/13 06:16:34;;;;;;;17.07;6.77;;;;;;;8.17;100.00;101471.66;5055446;28;20492;-70
2022/10/13 06:19:00;;;;;;;14.93;5.50;;;;;;;8.13;100.00;101467.84;5055137;28;20446;-70
2022/10/13 06:21:27;;;;;;;13.60;6.27;;;;;;;8.19;100.00;101472.22;5055256;28;20450;-70
2022/10/13 06:23:53;;;;;;;10.70;5.87;;;;;;;8.16;100.00;101475.44;5054775;28;20478;-70
2022/10/13 06:26:20;;;;;;;11.33;5.63;;;;;;;8.12;100.00;101479.72;5055221;28;20441;-70
2022/10/13 06:28:46;;;;;;;15.10;5.93;;;;;;;8.15;100.00;101468.41;5055164;28;20434;-70
2022/10/13 06:31:13;;;;;;;11.17;6.70;;;;;;;8.21;100.00;101467.34;5055124;28;20512;-70
2022/10/13 06:33:40;;;;;;;20.43;6.60;;;;;;;8.21;100.00;101474.66;5054977;28;20816;-69
2022/10/13 06:36:08;;;;;;;11.30;5.10;;;;;;;8.22;100.00;101468.16;5054921;28;20505;-70
2022/10/13 06:38:34;;;;;;;11.17;5.57;;;;;;;8.25;100.00;101467.66;5055005;28;20860;-70
2022/10/13 06:41:01;;;;;;;17.70;6.43;;;;;;;8.33;100.00;101475.25;5054981;28;20446;-70
2022/10/13 06:43:28;;;;;;;15.67;5.90;;;;;;;8.39;100.00;101470.69;5055189;28;20512;-70
2022/10/13 06:45:58;;;;;;;12.90;6.20;;;;;;;8.50;100.00;101475.88;5054835;28;20499;-69
2022/10/13 06:48:24;;;;;;;11.23;6.30;;;;;;;8.57;100.00;101472.91;5054822;28;20439;-70
2022/10/13 06:50:52;;;;;;;10.93;5.60;;;;;;;8.71;100.00;101465.13;5054721;28;20887;-70
2022/10/13 06:53:19;;;;;;;13.33;6.07;;;;;;;8.73;100.00;101469.19;5054624;28;20467;-70
2022/10/13 06:55:46;;;;;;;12.73;6.47;;;;;;;8.83;100.00;101463.81;5054594;28;20486;-70
2022/10/13 06:58:12;;;;;;;11.93;5.97;;;;;;;8.93;100.00;101463.00;5054597;28;20446;-69
2022/10/13 07:00:41;;;;;;;15.37;5.87;;;;;;;8.97;100.00;101469.50;5054520;28;20438;-70
2022/10/13 07:03:07;;;;;;;15.30;6.40;;;;;;;9.06;100.00;101467.06;5054498;28;20458;-70
2022/10/13 07:05:33;;;;;;;13.63;5.80;;;;;;;9.08;100.00;101462.22;5054501;28;20454;-70
2022/10/13 07:08:01;;;;;;;15.13;6.90;;;;;;;9.11;100.00;101461.66;5054382;28;20446;-71
2022/10/13 07:10:28;;;;;;;15.80;5.80;;;;;;;9.17;100.00;101460.59;5054366;28;20521;-72
2022/10/13 07:12:54;;;;;;;15.07;5.97;;;;;;;9.17;100.00;101460.59;5053929;28;20819;-72
2022/10/13 07:15:20;;;;;;;13.27;5.97;;;;;;;9.19;100.00;101458.44;5054205;28;20488;-72
2022/10/13 07:17:47;;;;;;;11.77;6.07;;;;;;;9.28;100.00;101456.81;5054156;28;20959;-70
2022/10/13 07:20:13;;;;;;;11.70;6.37;;;;;;;9.33;100.00;101456.81;5054186;28;20450;-74
2022/10/13 07:22:39;;;;;;;12.23;6.40;;;;;;;9.43;100.00;101452.47;5053313;28;20478;-74
2022/10/13 07:25:09;;;;;;;15.83;5.67;;;;;;;9.47;100.00;101451.66;5054195;28;20443;-71
2022/10/13 07:27:37;;;;;;;13.27;6.27;;;;;;;9.55;100.00;101445.69;5054225;28;20449;-72
2022/10/13 07:30:04;;;;;;;18.43;6.40;;;;;;;9.54;99.50;101446.78;5053756;28;20967;-71
2022/10/13 07:32:31;;;;;;;14.63;5.70;;;;;;;9.59;99.01;101444.06;5053874;28;20466;-70
2022/10/13 07:34:58;;;;;;;14.97;6.23;;;;;;;9.62;98.46;101442.72;5053576;28;20536;-71
2022/10/13 07:37:25;;;;;;;17.67;7.27;;;;;;;9.64;99.96;101451.38;5053895;28;20450;-71
2022/10/13 07:39:51;;;;;;;13.47;6.53;;;;;;;9.77;99.91;101444.59;5053537;28;20451;-69
2022/10/13 07:42:19;;;;;;;14.83;6.43;;;;;;;9.97;99.99;101441.03;5053775;28;20469;-71
2022/10/13 07:44:45;;;;;;;13.73;6.40;;;;;;;10.14;99.95;101443.38;5053768;28;20442;-70
2022/10/13 07:47:12;;;;;;;10.50;5.83;;;;;;;10.28;99.35;101453.38;5053634;28;20438;-70
2022/10/13 07:49:38;;;;;;;14.33;6.67;;;;;;;10.42;99.00;101450.88;5053253;28;20957;-70
2022/10/13 07:52:05;;;;;;;11.83;6.40;;;;;;;10.56;97.76;101453.78;5053646;28;20516;-70
2022/10/13 07:54:31;;;;;;;15.80;7.27;;;;;;;10.72;97.68;101451.81;5053580;28;20453;-70
2022/10/13 07:56:57;;;;;;;17.00;7.43;;;;;;;10.86;97.16;101453.59;5053075;28;20863;-70
2022/10/13 07:59:25;;;;;;;15.93;7.27;;;;;;;10.98;95.43;101449.72;5053485;28;20444;-70
2022/10/13 08:01:52;;;;;;;20.87;7.33;;;;;;;11.07;95.39;101446.16;5053350;28;20469;-70
2022/10/13 08:04:18;;;;;;;10.67;5.80;;;;;;;11.20;94.98;101449.28;5053760;28;20442;-70
2022/10/13 08:06:44;;;;;;;16.80;7.80;;;;;;;11.29;94.25;101448.41;5053429;28;20492;-70
2022/10/13 08:09:11;;;;;;;21.93;7.33;;;;;;;11.31;93.55;101445.41;5053397;28;20867;-70
2022/10/13 08:11:38;;;;;;;13.47;6.30;;;;;;;11.42;94.00;101446.94;5053272;28;20439;-70
2022/10/13 08:14:04;;;;;;;19.83;6.50;;;;;;;11.46;93.50;101437.13;5053325;28;20442;-72
2022/10/13 08:16:32;;;;;;;12.40;5.93;;;;;;;11.51;93.60;101438.97;5052875;28;20999;-70
2022/10/13 08:18:59;;;;;;;10.20;6.30;;;;;;;11.56;93.92;101430.81;5052894;28;20470;-70
2022/10/13 08:21:29;;;;;;;14.17;7.30;;;;;;;11.67;93.89;101428.78;5053026;28;20805;-70
2022/10/13 08:23:55;;;;;;;21.23;6.80;;;;;;;11.77;94.02;101426.75;5052760;28;20478;-70
2022/10/13 08:26:23;;;;;;;12.67;6.67;;;;;;;11.92;94.05;101422.31;5052707;28;20928;-70
2022/10/13 08:28:50;;;;;;;10.63;6.00;;;;;;;12.00;92.66;101421.69;5053116;28;20443;-71
2022/10/13 08:31:17;;;;;;;14.07;6.30;;;;;;;12.10;92.56;101425.06;5053136;28;20446;-70
2022/10/13 08:33:46;;;;;;;14.10;6.87;;;;;;;12.24;92.25;101435.22;5053351;28;20461;-70
2022/10/13 08:36:13;;;;;;;22.43;6.67;;;;;;;12.33;91.62;101431.56;5057188;28;20477;-70
2022/10/13 08:38:39;;;;;;;10.90;6.10;;;;;;;12.43;90.80;101427.09;5053650;28;20461;-70
2022/10/13 08:41:15;;;;;;;11.67;7.00;;;;;;;12.51;90.72;101419.09;5055495;28;20442;-72
2022/10/13 08:43:44;;;;;;;12.03;6.73;;;;;;;12.58;90.67;101414.09;5057028;28;20507;-71
2022/10/13 08:46:12;;;;;;;10.97;6.27;;;;;;;12.71;90.73;101426.16;5054619;28;20462;-71
2022/10/13 08:48:42;;;;;;;12.03;6.50;;;;;;;12.85;90.84;101421.59;5056857;28;20442;-70
2022/10/13 08:51:14;;;;;;;16.80;5.10;;;;;;;12.97;90.82;101410.25;5055269;28;20449;-71
2022/10/13 08:53:42;;;;;;;25.67;7.00;;;;;;;13.11;90.61;101413.81;5042945;28;20467;-70
2022/10/13 08:56:14;;;;;;;14.80;6.90;;;;;;;13.25;89.93;101410.38;5036798;28;20483;-71
2022/10/13 08:58:42;;;;;;;14.07;6.43;;;;;;;13.34;88.92;101412.09;5050186;28;20535;-71
2022/10/13 09:01:13;;;;;;;10.83;5.50;;;;;;;13.37;88.39;101402.53;5056805;28;20449;-71
2022/10/13 09:03:47;;;;;;;11.90;6.13;;;;;;;13.40;87.94;101403.84;5055049;28;20474;-70
2022/10/13 09:06:20;;;;;;;14.63;5.70;;;;;;;13.43;88.16;101393.16;5056612;28;20445;-71
2022/10/13 09:08:52;;;;;;;14.70;6.33;;;;;;;13.51;88.40;101403.38;5055957;28;20453;-71
2022/10/13 09:11:19;;;;;;;10.60;6.00;;;;;;;13.56;88.00;101400.56;5042284;28;20445;-70
2022/10/13 09:13:45;;;;;;;16.13;7.50;;;;;;;13.57;87.18;101406.78;5049412;28;20467;-71
2022/10/13 09:16:11;;;;;;;15.40;6.10;;;;;;;13.54;86.98;101415.56;5041600;28;20482;-71
2022/10/13 09:18:38;;;;;;;13.30;5.83;;;;;;;13.46;86.45;101406.19;5055459;28;20465;-71
2022/10/13 09:21:21;;;;;;;13.50;7.10;;;;;;;13.44;85.94;101408.38;5055433;28;20871;-70
2022/10/13 09:23:49;;;;;;;10.03;5.67;;;;;;;13.53;86.90;101406.59;5056063;28;20481;-71
2022/10/13 09:26:20;;;;;;;14.50;6.20;;;;;;;13.68;87.14;101404.69;5055246;28;20458;-72
2022/10/13 09:28:48;;;;;;;19.47;7.60;;;;;;;13.77;86.89;101400.97;5051406;28;20453;-71
2022/10/13 09:31:18;;;;;;;14.67;5.93;;;;;;;13.81;85.72;101403.88;5036388;28;20500;-71
2022/10/13 09:33:45;;;;;;;13.63;7.83;;;;;;;13.82;85.71;101406.31;5048503;28;20485;-71
2022/10/13 09:36:15;;;;;;;12.80;6.70;;;;;;;13.82;85.11;101409.03;5055389;28;20577;-70
2022/10/13 09:39:03;;;;;;;18.50;6.10;;;;;;;13.81;85.42;101407.44;5055804;28;21012;-70
2022/10/13 09:41:30;;;;;;;13.67;6.30;;;;;;;13.90;85.90;101407.53;5055586;28;20461;-70
2022/10/13 09:44:06;;;;;;;15.63;6.00;;;;;;;13.97;85.15;101416.09;5054990;28;20482;-70
2022/10/13 09:46:36;;;;;;;21.40;7.40;;;;;;;14.01;85.35;101411.66;5054494;28;20453;-71
2022/10/13 09:49:06;;;;;;;13.80;6.00;;;;;;;14.05;85.04;101412.66;5055960;28;20450;-70
2022/10/13 09:51:37;;;;;;;16.23;6.70;;;;;;;14.08;85.17;101417.50;5055007;28;20458;-70
2022/10/13 09:54:06;;;;;;;11.93;6.23;;;;;;;14.17;85.10;101414.88;5054878;28;20455;-70
2022/10/13 09:56:38;;;;;;;12.40;5.93;;;;;;;14.29;85.20;101419.78;5055885;28;20584;-70
2022/10/13 09:59:14;;;;;;;9.53;5.63;;;;;;;14.41;84.46;101416.53;5055034;28;20458;-71
2022/10/13 10:01:44;;;;;;;23.47;7.17;;;;;;;14.52;84.58;101421.50;5055783;28;20439;-71
2022/10/13 10:04:14;;;;;;;10.80;4.57;;;;;;;14.69;84.03;101412.66;5054703;28;20457;-70
2022/10/13 10:06:41;;;;;;;16.10;6.37;;;;;;;14.79;83.53;101415.16;5055835;28;20537;-71
2022/10/13 10:09:27;;;;;;;16.97;6.67;;;;;;;14.81;82.18;101417.56;5054430;28;20466;-71
2022/10/13 10:11:57;;;;;;;9.27;5.90;;;;;;;14.83;82.63;101405.25;5055533;28;20460;-71
2022/10/13 10:14:25;;;;;;;20.27;7.07;;;;;;;14.80;83.06;101405.84;5054677;28;20459;-71
2022/10/13 10:16:58;;;;;;;13.93;6.40;;;;;;;14.88;83.44;101399.66;5055254;28;20535;-70
2022/10/13 10:19:30;;;;;;;10.57;6.33;;;;;;;14.89;82.47;101397.72;5053155;28;20459;-70
2022/10/13 10:22:06;;;;;;;13.00;6.37;;;;;;;14.99;82.30;101407.59;5050567;28;20848;-70
2022/10/13 10:24:45;;;;;;;11.07;5.93;;;;;;;15.02;82.83;101393.34;5054574;28;20523;-70
2022/10/13 10:27:18;;;;;;;13.63;6.20;;;;;;;15.18;82.29;101397.28;5055450;28;20426;-70
2022/10/13 10:29:51;;;;;;;13.50;5.50;;;;;;;15.33;82.35;101396.91;5054616;28;20583;-71
2022/10/13 10:32:28;;;;;;;15.23;7.10;;;;;;;15.53;82.49;101384.59;5054378;28;20490;-71
2022/10/13 10:34:59;;;;;;;14.53;6.20;;;;;;;15.58;81.96;101383.66;5053840;28;20454;-70
2022/10/13 10:37:38;;;;;;;13.33;7.37;;;;;;;15.68;81.38;101382.63;5054894;28;20473;-70
2022/10/13 10:40:17;;;;;;;18.30;5.93;;;;;;;15.80;81.24;101380.88;5053681;28;20462;-71
2022/10/13 10:42:59;;;;;;;12.20;5.67;;;;;;;15.91;81.70;101370.47;5053259;28;20482;-71
2022/10/13 10:45:28;;;;;;;17.03;4.53;;;;;;;16.02;81.00;101368.25;5053817;28;20464;-70
2022/10/13 10:47:58;;;;;;;9.30;5.20;;;;;;;16.04;79.82;101364.09;5054988;28;20438;-71
2022/10/13 10:50:26;;;;;;;9.60;4.47;;;;;;;16.14;80.16;101361.03;5053625;28;20458;-70
2022/10/13 10:53:01;;;;;;;14.07;5.33;;;;;;;16.23;80.41;101361.03;5053609;28;20539;-71
2022/10/13 10:55:34;;;;;;;9.43;5.27;;;;;;;16.39;80.77;101351.25;5054680;28;20430;-71
2022/10/13 10:58:12;;;;;;;14.47;6.37;;;;;;;16.58;79.53;101347.41;5052744;28;20474;-71
2022/10/13 11:00:45;;;;;;;14.50;5.57;;;;;;;16.84;78.75;101350.94;5053982;28;20892;-71
2022/10/13 11:03:25;;;;;;;9.30;5.17;;;;;;;17.07;75.25;101342.50;5053628;28;20482;-71
2022/10/13 11:06:03;;;;;;;11.60;5.43;;;;;;;17.52;75.18;101342.81;5054548;28;20525;-70
2022/10/13 11:08:38;;;;;;;9.50;5.33;;;;;;;18.14;73.76;101349.59;5053458;28;20600;-70
2022/10/13 11:11:32;;;;;;;13.83;5.73;;;;;;;18.60;70.76;101340.38;5054437;28;20479;-71
2022/10/13 11:14:00;;;;;;;10.93;5.13;;;;;;;18.52;70.15;101352.22;5053185;28;20508;-71
2022/10/13 11:16:30;;;;;;;11.30;6.17;;;;;;;18.14;70.43;101346.84;5052946;28;20486;-71
2022/10/13 11:19:08;;;;;;;11.97;5.70;;;;;;;17.77;72.25;101341.13;5053011;28;20889;-70
2022/10/13 11:22:12;;;;;;;7.37;4.30;;;;;;;17.47;73.35;101342.22;5054093;28;20438;-71
2022/10/13 11:24:59;;;;;;;16.10;6.50;;;;;;;17.24;75.27;101338.94;5054050;28;20492;-71
2022/10/13 11:27:45;;;;;;;10.93;5.37;;;;;;;17.23;76.67;101340.06;5051991;28;20508;-72
2022/10/13 11:30:53;;;;;;;13.20;5.30;;;;;;;17.61;75.97;101329.88;5054027;28;20425;-72